Time;durP1;ratioP1;P1;durP2;ratioP2;P2;SDS_P1;SDS_P2;PMS_P1;PMS_P2;Temp;Humidity;BMP_temperature;BMP_pressure;BME280_temperature;BME280_humidity;BME280_pressure;Samples;Min_cycle;Max_cycle;Signal;HPM_P1;HPM_P2
2021/01/22 00:02:04;;;;;;;1.20;0.90;;;12.20;99.90;;;;;;4949736;28;20457;-88
2021/01/22 00:04:30;;;;;;;1.20;1.00;;;12.20;99.90;;;;;;4967691;28;20481;-86
2021/01/22 00:06:57;;;;;;;1.10;0.90;;;12.20;99.90;;;;;;4936696;28;20185;-85
2021/01/22 00:09:23;;;;;;;1.30;1.00;;;12.20;99.90;;;;;;4947234;28;20507;-86
2021/01/22 00:11:49;;;;;;;1.27;1.00;;;12.20;99.90;;;;;;4968146;28;20422;-88
2021/01/22 00:14:15;;;;;;;1.10;0.90;;;12.20;99.90;;;;;;4947978;28;20470;-87
2021/01/22 00:16:44;;;;;;;1.10;0.90;;;12.30;99.90;;;;;;4970431;28;20198;-84
2021/01/22 00:19:09;;;;;;;1.43;1.30;;;12.20;99.90;;;;;;4919288;28;21035;-85
2021/01/22 00:21:36;;;;;;;1.20;1.00;;;12.20;99.90;;;;;;4949506;28;20478;-84
2021/01/22 00:24:03;;;;;;;1.10;0.87;;;12.10;99.90;;;;;;4948599;28;20210;-85
2021/01/22 00:26:29;;;;;;;1.43;0.97;;;12.10;99.90;;;;;;4950663;28;20445;-86
2021/01/22 00:28:54;;;;;;;1.27;1.03;;;12.10;99.90;;;;;;4967132;28;20496;-86
2021/01/22 00:31:20;;;;;;;1.30;1.13;;;12.10;99.90;;;;;;4948658;28;20187;-85
2021/01/22 00:33:46;;;;;;;1.13;1.03;;;12.10;99.90;;;;;;4948218;28;20912;-86
2021/01/22 00:36:11;;;;;;;1.30;1.03;;;12.00;99.90;;;;;;4959777;28;20262;-84
2021/01/22 00:38:37;;;;;;;2.20;1.10;;;11.80;99.90;;;;;;4952869;28;20490;-84
2021/01/22 00:41:03;;;;;;;1.70;1.23;;;11.60;99.90;;;;;;4943426;28;20289;-83
2021/01/22 00:43:29;;;;;;;1.27;1.17;;;11.30;99.90;;;;;;4952128;28;20207;-86
2021/01/22 00:45:55;;;;;;;1.60;1.00;;;10.90;99.90;;;;;;4930109;28;20793;-83
2021/01/22 00:48:20;;;;;;;1.20;1.00;;;10.60;99.90;;;;;;4949306;28;20649;-84
2021/01/22 00:50:46;;;;;;;1.10;1.00;;;10.30;99.90;;;;;;4947513;28;20787;-85
2021/01/22 00:53:12;;;;;;;1.50;1.27;;;10.10;99.90;;;;;;4947116;28;20215;-84
2021/01/22 00:55:41;;;;;;;1.57;1.20;;;9.80;99.90;;;;;;4948317;28;20568;-87
2021/01/22 00:58:06;;;;;;;2.30;1.10;;;9.60;99.90;;;;;;4948372;28;20190;-87
2021/01/22 01:00:35;;;;;;;1.87;1.20;;;9.50;99.90;;;;;;4966739;28;20670;-86
2021/01/22 01:03:01;;;;;;;1.30;1.20;;;9.50;99.90;;;;;;4945166;28;20269;-87
2021/01/22 01:05:27;;;;;;;1.17;1.07;;;9.40;99.90;;;;;;4943660;28;20458;-85
2021/01/22 01:07:55;;;;;;;1.53;1.37;;;9.40;99.90;;;;;;4948777;28;20205;-86
2021/01/22 01:10:21;;;;;;;2.73;1.40;;;9.30;99.90;;;;;;4947268;28;20190;-84
2021/01/22 01:12:47;;;;;;;1.30;1.13;;;9.40;99.90;;;;;;4945162;28;20608;-87
2021/01/22 01:15:13;;;;;;;1.10;1.00;;;9.50;99.90;;;;;;4964829;28;20702;-85
2021/01/22 01:17:40;;;;;;;1.80;1.30;;;9.70;99.90;;;;;;4947005;28;20186;-84
2021/01/22 01:20:06;;;;;;;2.90;1.20;;;9.70;99.90;;;;;;4946209;28;20459;-85
2021/01/22 01:22:36;;;;;;;1.30;1.20;;;9.80;99.90;;;;;;4933266;28;20951;-85
2021/01/22 01:25:03;;;;;;;1.27;1.17;;;9.90;99.90;;;;;;4947962;28;20834;-85
2021/01/22 01:27:29;;;;;;;1.40;1.20;;;10.10;99.90;;;;;;4948708;28;20924;-86
2021/01/22 01:29:54;;;;;;;2.20;1.40;;;10.30;99.90;;;;;;4946909;28;20430;-84
2021/01/22 01:32:20;;;;;;;1.73;1.10;;;10.40;99.90;;;;;;4944248;28;20536;-86
2021/01/22 01:34:46;;;;;;;1.50;1.33;;;10.60;99.90;;;;;;4962396;28;20217;-84
2021/01/22 01:37:11;;;;;;;2.23;1.40;;;10.80;99.90;;;;;;4936702;28;20720;-84
2021/01/22 01:39:37;;;;;;;1.60;1.20;;;10.70;99.90;;;;;;4946813;28;20179;-86
2021/01/22 01:42:03;;;;;;;1.40;1.30;;;10.90;99.90;;;;;;4935191;28;20206;-84
2021/01/22 01:44:31;;;;;;;1.50;1.37;;;11.00;99.90;;;;;;4946247;28;20203;-85
2021/01/22 01:46:57;;;;;;;4.37;1.23;;;11.10;99.90;;;;;;4933009;28;20477;-86
2021/01/22 01:49:23;;;;;;;1.17;1.03;;;11.20;99.90;;;;;;4962623;28;20842;-85
2021/01/22 01:51:49;;;;;;;1.40;1.10;;;11.30;99.90;;;;;;4945371;28;20194;-86
2021/01/22 01:54:18;;;;;;;1.87;1.40;;;11.30;99.90;;;;;;4964409;28;20644;-86
2021/01/22 01:56:44;;;;;;;2.60;1.30;;;11.30;99.90;;;;;;4962681;28;20554;-87
2021/01/22 01:59:09;;;;;;;1.93;1.37;;;11.30;99.90;;;;;;4945705;28;20433;-87
2021/01/22 02:01:37;;;;;;;2.73;1.17;;;11.40;99.90;;;;;;4946034;28;20484;-85
2021/01/22 02:04:03;;;;;;;2.90;1.37;;;11.50;99.90;;;;;;4968929;28;20210;-86
2021/01/22 02:06:30;;;;;;;1.90;1.20;;;11.60;99.90;;;;;;4965592;28;20932;-84
2021/01/22 02:08:56;;;;;;;3.17;1.90;;;11.70;99.90;;;;;;4949317;28;20461;-85
2021/01/22 02:11:22;;;;;;;1.70;1.57;;;11.80;99.90;;;;;;4947894;28;20523;-86
2021/01/22 02:13:55;;;;;;;2.47;1.40;;;11.90;99.90;;;;;;4943899;28;20446;-86
2021/01/22 02:16:22;;;;;;;1.40;1.30;;;11.90;99.90;;;;;;4968146;28;20183;-83
2021/01/22 02:18:50;;;;;;;3.73;2.03;;;12.00;99.90;;;;;;4927225;28;20443;-85
2021/01/22 02:21:34;;;;;;;1.87;1.47;;;12.00;99.90;;;;;;4962052;28;21368;-82
2021/01/22 02:24:13;;;;;;;1.67;1.10;;;12.10;99.90;;;;;;4935513;28;20612;-84
2021/01/22 02:26:42;;;;;;;1.93;1.30;;;12.20;99.90;;;;;;4946939;28;20440;-86
2021/01/22 02:29:09;;;;;;;3.00;1.30;;;12.30;99.90;;;;;;4964982;28;20490;-83
2021/01/22 02:31:38;;;;;;;4.50;1.60;;;12.30;99.90;;;;;;4946623;28;20508;-83
2021/01/22 02:34:07;;;;;;;2.50;1.43;;;12.40;99.90;;;;;;4938493;28;20808;-88
2021/01/22 02:36:35;;;;;;;5.37;1.90;;;12.40;99.90;;;;;;4945960;28;20434;-85
2021/01/22 02:39:04;;;;;;;2.23;1.67;;;12.40;99.90;;;;;;4938136;28;20452;-82
2021/01/22 02:41:31;;;;;;;2.43;1.30;;;12.40;99.90;;;;;;4948998;28;20500;-86
2021/01/22 02:44:00;;;;;;;2.40;1.30;;;12.50;99.90;;;;;;4953007;28;20505;-87
2021/01/22 02:46:27;;;;;;;2.97;1.60;;;12.50;99.90;;;;;;4963649;28;20422;-84
2021/01/22 02:48:55;;;;;;;3.30;2.13;;;12.50;99.90;;;;;;4964480;28;20454;-85
2021/01/22 02:51:20;;;;;;;7.97;1.63;;;12.50;99.90;;;;;;4946204;28;20441;-84
2021/01/22 02:53:46;;;;;;;5.30;1.97;;;12.50;99.90;;;;;;4949711;28;20435;-83
2021/01/22 02:56:19;;;;;;;4.30;1.50;;;12.50;99.90;;;;;;4962581;28;20604;-84
2021/01/22 02:58:59;;;;;;;2.43;1.47;;;12.50;99.90;;;;;;4962507;28;20210;-85
2021/01/22 03:01:29;;;;;;;1.67;1.40;;;12.50;99.90;;;;;;4962601;28;20496;-87
2021/01/22 03:04:05;;;;;;;1.77;1.20;;;12.50;99.90;;;;;;4948920;28;20514;-85
2021/01/22 03:06:40;;;;;;;5.83;3.20;;;12.50;99.90;;;;;;4961925;28;20565;-86
2021/01/22 03:09:09;;;;;;;1.70;1.43;;;12.50;99.90;;;;;;4966851;28;20453;-86
2021/01/22 03:11:37;;;;;;;2.13;1.67;;;12.50;99.90;;;;;;4944174;28;20422;-83
2021/01/22 03:14:04;;;;;;;2.27;1.40;;;12.50;99.90;;;;;;4933395;28;20942;-86
2021/01/22 03:16:33;;;;;;;5.20;1.67;;;12.50;99.90;;;;;;4959536;28;20513;-86
2021/01/22 03:19:00;;;;;;;3.37;1.73;;;12.50;99.90;;;;;;4945814;28;20431;-84
2021/01/22 03:21:26;;;;;;;2.37;1.20;;;12.50;99.90;;;;;;4963517;28;20549;-86
2021/01/22 03:23:52;;;;;;;5.10;1.80;;;12.50;99.90;;;;;;4945090;28;20489;-85
2021/01/22 03:26:18;;;;;;;4.07;1.33;;;12.50;99.90;;;;;;4947356;28;20194;-85
2021/01/22 03:28:47;;;;;;;2.40;1.47;;;12.50;99.90;;;;;;4946032;28;20427;-84
2021/01/22 03:31:12;;;;;;;3.10;1.50;;;12.40;99.90;;;;;;4963252;28;20426;-86
2021/01/22 03:33:38;;;;;;;1.80;1.13;;;12.40;99.90;;;;;;4933905;28;20701;-83
2021/01/22 03:36:08;;;;;;;3.63;1.60;;;12.50;99.90;;;;;;4947552;28;20207;-86
2021/01/22 03:38:34;;;;;;;1.93;1.50;;;12.50;99.90;;;;;;4948388;28;20237;-86
2021/01/22 03:41:01;;;;;;;3.20;1.27;;;12.50;99.90;;;;;;4962728;28;20811;-86
2021/01/22 03:43:26;;;;;;;3.17;1.70;;;12.50;99.90;;;;;;4946470;28;20462;-87
2021/01/22 03:45:53;;;;;;;6.03;1.70;;;12.50;99.90;;;;;;4963439;28;20425;-84
2021/01/22 03:48:18;;;;;;;1.97;1.20;;;12.50;99.90;;;;;;4963291;28;20179;-86
2021/01/22 03:50:44;;;;;;;3.50;1.80;;;12.50;99.90;;;;;;4948005;28;20476;-85
2021/01/22 03:53:10;;;;;;;3.50;1.70;;;12.50;99.90;;;;;;4963224;28;20271;-83
2021/01/22 03:55:36;;;;;;;2.43;1.73;;;12.50;99.90;;;;;;4950710;28;20285;-84
2021/01/22 03:58:03;;;;;;;1.37;1.20;;;12.50;99.90;;;;;;4963580;28;20537;-87
2021/01/22 04:00:31;;;;;;;4.40;1.50;;;12.50;99.90;;;;;;4965887;28;20456;-87
2021/01/22 04:02:58;;;;;;;2.80;1.30;;;12.50;99.90;;;;;;4946391;28;20474;-87
2021/01/22 04:05:24;;;;;;;4.03;3.73;;;12.50;99.90;;;;;;4953411;28;20424;-87
2021/01/22 04:07:50;;;;;;;5.23;1.30;;;12.50;99.90;;;;;;4944964;28;20445;-86
2021/01/22 04:10:18;;;;;;;2.23;1.37;;;12.50;99.90;;;;;;4935287;28;20488;-87
2021/01/22 04:12:47;;;;;;;1.93;1.30;;;12.40;99.90;;;;;;4946677;28;20467;-84
2021/01/22 04:15:13;;;;;;;2.60;1.27;;;12.40;99.90;;;;;;4936912;28;20973;-84
2021/01/22 04:17:39;;;;;;;7.80;1.47;;;12.30;99.90;;;;;;4944356;28;20451;-85
2021/01/22 04:20:08;;;;;;;1.40;1.00;;;12.30;99.90;;;;;;4954742;28;20636;-83
2021/01/22 04:22:34;;;;;;;2.40;1.23;;;12.30;99.90;;;;;;4952045;28;20462;-86
2021/01/22 04:25:02;;;;;;;1.80;1.40;;;12.30;99.90;;;;;;4965443;28;20423;-83
2021/01/22 04:27:28;;;;;;;1.20;1.10;;;12.30;99.90;;;;;;4944990;28;20442;-86
2021/01/22 04:29:54;;;;;;;1.30;1.10;;;12.30;99.90;;;;;;4938212;28;20434;-84
2021/01/22 04:32:19;;;;;;;1.77;1.20;;;12.40;99.90;;;;;;4938609;28;20250;-86
2021/01/22 04:34:45;;;;;;;1.93;1.13;;;12.40;99.90;;;;;;4935311;28;20203;-85
2021/01/22 04:37:11;;;;;;;2.37;1.33;;;12.40;99.90;;;;;;4934194;28;20191;-84
2021/01/22 04:39:36;;;;;;;2.33;1.30;;;12.40;99.90;;;;;;4947716;28;20269;-85
2021/01/22 04:42:06;;;;;;;2.27;1.20;;;12.40;99.90;;;;;;4946911;28;20218;-85
2021/01/22 04:44:32;;;;;;;2.10;1.20;;;12.40;99.90;;;;;;4951715;28;20209;-86
2021/01/22 04:46:59;;;;;;;1.73;1.57;;;12.40;99.90;;;;;;4962256;28;20466;-82
2021/01/22 04:49:25;;;;;;;2.43;1.40;;;12.40;99.90;;;;;;4949858;28;20627;-84
2021/01/22 04:51:52;;;;;;;6.10;2.10;;;12.40;99.90;;;;;;4966236;28;20422;-86
2021/01/22 04:54:22;;;;;;;1.93;1.23;;;12.40;99.90;;;;;;4949088;28;20442;-85
2021/01/22 04:56:51;;;;;;;2.90;1.37;;;12.40;99.90;;;;;;4945535;28;20547;-85
2021/01/22 04:59:50;;;;;;;1.47;1.20;;;12.40;99.90;;;;;;4947376;28;20438;-86
2021/01/22 05:02:16;;;;;;;3.20;1.30;;;12.30;99.90;;;;;;4964970;28;20465;-85
2021/01/22 05:04:42;;;;;;;4.57;1.40;;;12.40;99.90;;;;;;4968812;28;20515;-87
2021/01/22 05:07:12;;;;;;;3.23;1.50;;;12.40;99.90;;;;;;4963999;28;21877;-85
2021/01/22 05:09:38;;;;;;;2.87;1.93;;;12.40;99.90;;;;;;4936773;28;20438;-84
2021/01/22 05:12:04;;;;;;;1.77;1.40;;;12.40;99.90;;;;;;4965996;28;20525;-84
2021/01/22 05:14:30;;;;;;;2.50;1.20;;;12.40;99.90;;;;;;4947445;28;20469;-85
2021/01/22 05:17:05;;;;;;;2.33;1.60;;;12.40;99.90;;;;;;4964919;28;20522;-85
2021/01/22 05:19:35;;;;;;;2.17;1.60;;;12.50;99.90;;;;;;4949141;28;20425;-88
2021/01/22 05:22:04;;;;;;;2.43;1.30;;;12.40;99.90;;;;;;4953913;28;20473;-85
2021/01/22 05:24:31;;;;;;;1.43;1.10;;;12.20;99.90;;;;;;4947365;28;20497;-86
2021/01/22 05:27:03;;;;;;;1.93;1.40;;;12.10;99.90;;;;;;4965427;28;21013;-87
2021/01/22 05:29:30;;;;;;;2.63;1.23;;;12.00;99.90;;;;;;4944210;28;20430;-87
2021/01/22 05:31:56;;;;;;;1.40;1.30;;;11.90;99.90;;;;;;4937318;28;20429;-87
2021/01/22 05:34:23;;;;;;;4.87;1.47;;;11.80;99.90;;;;;;4950031;28;20473;-85
2021/01/22 05:36:49;;;;;;;1.97;1.40;;;11.50;99.90;;;;;;4960816;28;20183;-84
2021/01/22 05:39:20;;;;;;;5.47;1.30;;;11.30;99.90;;;;;;4938659;28;20469;-83
2021/01/22 05:41:57;;;;;;;1.80;1.33;;;11.20;99.90;;;;;;4946827;28;20575;-86
2021/01/22 05:44:24;;;;;;;2.50;1.30;;;11.30;99.90;;;;;;4965264;28;20469;-84
2021/01/22 05:47:04;;;;;;;1.57;1.30;;;11.20;99.90;;;;;;4934644;28;20837;-88
2021/01/22 05:49:55;;;;;;;3.47;1.20;;;11.30;99.90;;;;;;4943396;28;20864;-86
2021/01/22 05:52:23;;;;;;;1.50;1.10;;;11.30;99.90;;;;;;4964106;28;20447;-84
2021/01/22 05:54:52;;;;;;;6.10;1.53;;;11.20;99.90;;;;;;4960290;28;20446;-85
2021/01/22 05:57:20;;;;;;;1.20;1.10;;;11.30;99.90;;;;;;4967389;28;20435;-86
2021/01/22 05:59:50;;;;;;;2.23;1.20;;;11.30;99.90;;;;;;4944102;28;20457;-86
2021/01/22 06:02:31;;;;;;;1.20;1.10;;;11.40;99.90;;;;;;4948953;28;20464;-85
2021/01/22 06:05:10;;;;;;;2.43;1.50;;;11.40;99.90;;;;;;4963148;28;20435;-87
2021/01/22 06:07:49;;;;;;;1.40;1.20;;;11.50;99.90;;;;;;4949410;28;20431;-85
2021/01/22 06:10:18;;;;;;;2.27;1.50;;;11.60;99.90;;;;;;4928900;28;20454;-86
2021/01/22 06:12:50;;;;;;;3.83;1.30;;;11.50;99.90;;;;;;4948462;28;20425;-86
2021/01/22 06:15:18;;;;;;;3.43;1.30;;;11.40;99.90;;;;;;4966576;28;20417;-85
2021/01/22 06:17:52;;;;;;;2.40;1.70;;;11.30;99.90;;;;;;4965559;28;20464;-88
2021/01/22 06:20:23;;;;;;;1.80;1.40;;;11.30;99.90;;;;;;4947715;28;20445;-85
2021/01/22 06:23:11;;;;;;;1.70;1.23;;;11.20;99.90;;;;;;4946127;28;20604;-85
2021/01/22 06:25:38;;;;;;;2.80;1.50;;;11.30;99.90;;;;;;4951893;28;20426;-86
2021/01/22 06:28:11;;;;;;;3.53;1.40;;;11.30;99.90;;;;;;4946413;28;20441;-85
2021/01/22 06:30:40;;;;;;;2.87;1.30;;;11.40;99.90;;;;;;4949476;28;20510;-86
2021/01/22 06:33:09;;;;;;;3.80;1.50;;;11.40;99.90;;;;;;4962004;28;20938;-87
2021/01/22 06:35:36;;;;;;;3.73;1.70;;;11.40;99.90;;;;;;4959580;28;20464;-84
2021/01/22 06:38:03;;;;;;;2.80;1.50;;;11.50;99.90;;;;;;4964613;28;20436;-87
2021/01/22 06:40:29;;;;;;;3.40;1.30;;;11.70;99.90;;;;;;4945289;28;20869;-85
2021/01/22 06:42:55;;;;;;;1.80;1.50;;;11.80;99.90;;;;;;4960644;28;20473;-84
2021/01/22 06:45:24;;;;;;;6.40;1.60;;;11.90;99.90;;;;;;4931947;28;20203;-86
2021/01/22 06:47:59;;;;;;;3.37;1.27;;;12.10;99.90;;;;;;4965250;28;20431;-85
2021/01/22 06:50:25;;;;;;;2.33;1.43;;;12.20;99.90;;;;;;4961249;28;20430;-85
2021/01/22 06:53:04;;;;;;;5.57;1.50;;;12.20;99.90;;;;;;4943820;28;20501;-87
2021/01/22 06:55:30;;;;;;;3.30;1.40;;;12.10;99.90;;;;;;4935346;28;20565;-85
2021/01/22 06:58:28;;;;;;;3.27;1.13;;;12.10;99.90;;;;;;4952435;28;20430;-83
2021/01/22 07:01:04;;;;;;;4.17;1.53;;;12.20;99.90;;;;;;4963971;28;20536;-85
2021/01/22 07:03:35;;;;;;;3.20;1.80;;;12.30;99.90;;;;;;4934461;28;20670;-84
2021/01/22 07:06:24;;;;;;;3.23;1.43;;;12.40;99.90;;;;;;4948706;28;20446;-84
2021/01/22 07:08:53;;;;;;;2.70;1.80;;;12.30;99.90;;;;;;4945434;28;20468;-86
2021/01/22 07:11:19;;;;;;;2.27;1.33;;;12.10;99.90;;;;;;4965833;28;20458;-87
2021/01/22 07:13:46;;;;;;;3.73;2.17;;;11.90;99.90;;;;;;4943769;28;20442;-86
2021/01/22 07:16:18;;;;;;;1.60;1.20;;;11.90;99.90;;;;;;4948723;28;20802;-87
2021/01/22 07:18:54;;;;;;;2.43;1.47;;;12.00;99.90;;;;;;4963292;28;20443;-87
2021/01/22 07:21:32;;;;;;;3.20;1.53;;;12.10;99.90;;;;;;4928117;28;20482;-84
2021/01/22 07:24:03;;;;;;;5.70;1.70;;;12.30;99.90;;;;;;4956458;28;20488;-87
2021/01/22 07:26:45;;;;;;;2.80;1.40;;;12.40;99.90;;;;;;4946859;28;20473;-87
2021/01/22 07:29:18;;;;;;;3.80;1.50;;;12.50;99.90;;;;;;4948187;28;20438;-86
2021/01/22 07:32:12;;;;;;;3.80;1.57;;;12.60;99.90;;;;;;4954353;28;20453;-86
2021/01/22 07:34:47;;;;;;;2.80;1.70;;;12.70;99.90;;;;;;4958551;28;20482;-85
2021/01/22 07:37:26;;;;;;;5.20;1.40;;;12.80;99.90;;;;;;4968217;28;20455;-86
2021/01/22 07:39:55;;;;;;;3.97;1.97;;;12.80;99.90;;;;;;4949475;28;20433;-86
2021/01/22 07:42:27;;;;;;;5.77;1.60;;;12.90;99.90;;;;;;4934122;28;20478;-85
2021/01/22 07:44:54;;;;;;;3.20;1.63;;;12.90;99.90;;;;;;4936202;28;20445;-87
2021/01/22 07:47:28;;;;;;;2.47;1.50;;;12.90;99.90;;;;;;4935217;28;20474;-87
2021/01/22 07:49:59;;;;;;;3.77;1.40;;;12.90;99.90;;;;;;4944492;28;20473;-86
2021/01/22 07:52:29;;;;;;;2.40;1.83;;;13.00;99.90;;;;;;4945917;28;20460;-85
2021/01/22 07:54:55;;;;;;;6.80;1.40;;;13.00;99.90;;;;;;4948373;28;20446;-84
2021/01/22 07:57:22;;;;;;;2.70;1.20;;;13.10;99.90;;;;;;4930793;28;20846;-86
2021/01/22 07:59:52;;;;;;;3.20;1.43;;;13.10;99.90;;;;;;4932834;28;20457;-87
2021/01/22 08:02:20;;;;;;;7.80;1.87;;;13.10;99.90;;;;;;4960983;28;20480;-87
2021/01/22 08:04:54;;;;;;;3.63;1.67;;;13.10;99.90;;;;;;4945778;28;20963;-85
2021/01/22 08:07:32;;;;;;;5.23;2.47;;;13.10;99.90;;;;;;4947690;28;21190;-85
2021/01/22 08:09:58;;;;;;;5.50;1.60;;;13.20;99.90;;;;;;4962076;28;20418;-86
2021/01/22 08:12:27;;;;;;;6.87;1.90;;;13.20;99.90;;;;;;4953513;28;20501;-84
2021/01/22 08:14:52;;;;;;;3.40;1.27;;;13.30;99.90;;;;;;4965194;28;20201;-84
2021/01/22 08:17:19;;;;;;;1.50;1.17;;;13.30;99.90;;;;;;4924758;28;20451;-82
2021/01/22 08:19:45;;;;;;;3.33;1.60;;;13.30;99.90;;;;;;4948751;28;20182;-87
2021/01/22 08:22:15;;;;;;;5.73;2.00;;;13.30;99.90;;;;;;4965205;28;20476;-83
2021/01/22 08:24:51;;;;;;;5.03;1.60;;;13.30;99.90;;;;;;4935751;28;20454;-85
2021/01/22 08:27:23;;;;;;;1.97;1.30;;;13.40;99.90;;;;;;4964223;28;20438;-85
2021/01/22 08:29:50;;;;;;;1.53;1.43;;;13.40;99.90;;;;;;4932433;28;20455;-86
2021/01/22 08:32:18;;;;;;;6.17;2.17;;;13.40;99.90;;;;;;4957998;28;20991;-86
2021/01/22 08:34:44;;;;;;;9.57;1.63;;;13.40;99.90;;;;;;4944126;28;20557;-84
2021/01/22 08:37:10;;;;;;;6.80;1.70;;;13.40;99.90;;;;;;4961709;28;20454;-84
2021/01/22 08:39:51;;;;;;;2.70;1.37;;;13.50;99.90;;;;;;4938248;28;20901;-85
2021/01/22 08:42:17;;;;;;;2.60;1.37;;;13.60;99.90;;;;;;4950238;28;20476;-85
2021/01/22 08:44:59;;;;;;;3.93;1.60;;;13.50;99.90;;;;;;4961448;28;20434;-86
2021/01/22 08:47:27;;;;;;;2.47;1.37;;;13.50;99.90;;;;;;4965744;28;20171;-86
2021/01/22 08:50:05;;;;;;;3.33;1.47;;;13.50;99.90;;;;;;4960452;28;20512;-85
2021/01/22 08:52:31;;;;;;;2.50;1.60;;;13.50;99.90;;;;;;4946289;28;20430;-85
2021/01/22 08:54:58;;;;;;;3.23;1.83;;;13.50;99.90;;;;;;4942483;28;20443;-84
2021/01/22 08:57:25;;;;;;;11.47;1.90;;;13.50;99.90;;;;;;4938958;28;20458;-86
2021/01/22 08:59:54;;;;;;;3.63;1.67;;;13.50;99.90;;;;;;4945228;28;20438;-88
2021/01/22 09:02:38;;;;;;;4.10;1.30;;;13.30;99.90;;;;;;4941485;28;20498;-84
2021/01/22 09:05:09;;;;;;;4.67;2.10;;;13.30;99.90;;;;;;4966390;28;20799;-85
2021/01/22 09:07:35;;;;;;;2.37;1.60;;;13.20;99.90;;;;;;4936780;28;20429;-83
2021/01/22 09:10:01;;;;;;;6.50;1.73;;;13.00;99.90;;;;;;4950393;28;20454;-86
2021/01/22 09:12:34;;;;;;;3.67;1.43;;;12.80;99.90;;;;;;4942506;28;20445;-85
2021/01/22 09:15:04;;;;;;;3.33;1.33;;;12.60;99.90;;;;;;4934136;28;20823;-85
2021/01/22 09:17:44;;;;;;;1.77;1.40;;;12.40;99.90;;;;;;4964786;28;20496;-85
2021/01/22 09:20:14;;;;;;;3.10;1.57;;;12.30;99.90;;;;;;4945333;28;20473;-85
2021/01/22 09:22:41;;;;;;;3.37;1.83;;;12.30;99.90;;;;;;4962331;28;20459;-84
2021/01/22 09:25:10;;;;;;;5.37;1.80;;;12.40;99.90;;;;;;4938867;28;20438;-85
2021/01/22 09:27:37;;;;;;;5.60;1.70;;;12.50;99.90;;;;;;4944448;28;20426;-86
2021/01/22 09:30:13;;;;;;;3.13;1.37;;;12.60;99.90;;;;;;4961362;28;20476;-83
2021/01/22 09:32:43;;;;;;;4.17;1.40;;;12.80;99.90;;;;;;4963226;28;20644;-86
2021/01/22 09:35:09;;;;;;;5.07;1.73;;;13.00;99.90;;;;;;4959636;28;20419;-85
2021/01/22 09:37:35;;;;;;;2.73;1.90;;;13.20;99.90;;;;;;4958658;28;20506;-85
2021/01/22 09:40:01;;;;;;;4.67;1.60;;;13.30;99.90;;;;;;4932263;28;21130;-84
2021/01/22 09:42:27;;;;;;;3.97;1.50;;;13.30;99.90;;;;;;4945178;28;20273;-85
2021/01/22 09:44:55;;;;;;;4.40;1.83;;;13.20;99.90;;;;;;4945270;28;20521;-85
2021/01/22 09:47:21;;;;;;;2.83;1.50;;;13.30;99.90;;;;;;4946340;28;20214;-85
2021/01/22 09:49:46;;;;;;;2.40;1.47;;;13.30;99.90;;;;;;4945742;28;20978;-85
2021/01/22 09:52:14;;;;;;;3.43;1.63;;;13.10;99.90;;;;;;4945540;28;21560;-85
2021/01/22 09:54:40;;;;;;;2.70;1.60;;;13.00;99.90;;;;;;4945146;28;20775;-84
2021/01/22 09:57:06;;;;;;;1.80;1.30;;;12.90;99.90;;;;;;4962160;28;20510;-85
2021/01/22 09:59:35;;;;;;;2.40;1.33;;;13.00;99.90;;;;;;4946945;28;20478;-86
2021/01/22 10:02:00;;;;;;;3.67;1.83;;;13.30;99.90;;;;;;4964760;28;20201;-84
2021/01/22 10:04:26;;;;;;;5.07;1.50;;;13.40;99.90;;;;;;4946457;28;20639;-86
2021/01/22 10:06:52;;;;;;;3.60;1.60;;;13.50;99.90;;;;;;4961158;28;20191;-84
2021/01/22 10:09:20;;;;;;;2.73;1.90;;;13.50;99.90;;;;;;4931461;28;20676;-84
2021/01/22 10:11:46;;;;;;;4.90;2.03;;;13.60;99.90;;;;;;4948426;28;20290;-85
2021/01/22 10:14:12;;;;;;;3.47;2.20;;;13.50;99.90;;;;;;4925255;28;20533;-84
2021/01/22 10:16:38;;;;;;;2.87;1.37;;;13.30;99.90;;;;;;4933894;28;20195;-84
2021/01/22 10:19:04;;;;;;;3.27;1.70;;;13.10;99.90;;;;;;4931382;28;20217;-86
2021/01/22 10:21:31;;;;;;;2.27;1.33;;;12.90;99.90;;;;;;4944353;28;20279;-86
2021/01/22 10:23:59;;;;;;;1.60;1.30;;;12.90;99.90;;;;;;4963351;28;20339;-86
2021/01/22 10:26:25;;;;;;;3.40;1.70;;;12.80;99.90;;;;;;4959967;28;20940;-86
2021/01/22 10:28:52;;;;;;;3.33;1.67;;;12.50;99.90;;;;;;4961374;28;20430;-86
2021/01/22 10:31:18;;;;;;;5.33;1.60;;;12.40;99.90;;;;;;4943391;28;20195;-86
2021/01/22 10:33:51;;;;;;;1.43;1.30;;;12.40;99.90;;;;;;4964465;28;20442;-85
2021/01/22 10:36:20;;;;;;;2.50;1.73;;;12.30;99.90;;;;;;4944132;28;20877;-88
2021/01/22 10:39:08;;;;;;;3.53;1.90;;;12.30;99.90;;;;;;4947197;28;20428;-85
2021/01/22 10:42:17;;;;;;;2.70;1.60;;;12.40;99.90;;;;;;4952679;28;20462;-84
2021/01/22 10:45:12;;;;;;;2.57;1.50;;;12.50;99.90;;;;;;4964458;28;20478;-87
2021/01/22 10:47:38;;;;;;;2.23;1.83;;;12.80;99.90;;;;;;4948955;28;20517;-86
2021/01/22 10:50:08;;;;;;;3.20;1.60;;;13.10;99.90;;;;;;4950172;28;20430;-89
2021/01/22 10:57:04;;;;;;;2.70;1.53;;;13.70;99.90;;;;;;4825990;29;20452;-85
2021/01/22 11:00:08;;;;;;;2.63;1.60;;;13.90;99.90;;;;;;4801952;29;20452;-87
2021/01/22 11:02:34;;;;;;;1.90;1.70;;;14.00;99.90;;;;;;4863590;29;20597;-84
2021/01/22 11:05:00;;;;;;;2.57;1.70;;;14.20;99.90;;;;;;4908861;28;20981;-87
2021/01/22 11:07:25;;;;;;;2.40;2.20;;;14.30;99.90;;;;;;4944709;28;20183;-87
2021/01/22 11:09:51;;;;;;;4.80;1.70;;;14.40;99.90;;;;;;4965191;28;20191;-83
2021/01/22 11:12:20;;;;;;;2.30;1.53;;;14.40;99.90;;;;;;4945327;28;20209;-87
2021/01/22 11:14:47;;;;;;;2.23;1.60;;;14.40;99.90;;;;;;4946227;28;20590;-87
2021/01/22 11:17:13;;;;;;;2.90;1.70;;;14.40;99.90;;;;;;4934710;28;20468;-87
2021/01/22 11:19:39;;;;;;;2.57;1.40;;;14.40;99.90;;;;;;4964094;28;21160;-87
2021/01/22 11:22:05;;;;;;;5.63;1.93;;;14.40;99.90;;;;;;4963685;28;20508;-87
2021/01/22 11:24:30;;;;;;;1.70;1.50;;;14.30;99.90;;;;;;4932131;28;20454;-86
2021/01/22 11:27:00;;;;;;;1.83;1.33;;;13.20;99.90;;;;;;4964437;28;20221;-87
2021/01/22 11:29:25;;;;;;;2.10;1.53;;;12.20;99.90;;;;;;4962474;28;20186;-86
2021/01/22 11:31:54;;;;;;;2.57;1.40;;;11.50;99.90;;;;;;4947630;28;20440;-86
2021/01/22 11:34:20;;;;;;;1.30;1.10;;;10.90;99.90;;;;;;4936078;28;20206;-85
2021/01/22 11:36:46;;;;;;;1.70;1.10;;;10.30;99.90;;;;;;4934170;28;20469;-87
2021/01/22 11:39:12;;;;;;;1.90;1.23;;;9.40;99.90;;;;;;4961427;28;20798;-86
2021/01/22 11:41:38;;;;;;;2.10;1.40;;;9.00;99.90;;;;;;4929899;28;20467;-83
2021/01/22 11:44:05;;;;;;;1.83;1.43;;;8.50;99.90;;;;;;4935186;28;20259;-85
2021/01/22 11:46:32;;;;;;;1.50;1.20;;;8.30;99.90;;;;;;4943557;28;20630;-86
2021/01/22 11:48:59;;;;;;;1.80;1.20;;;8.10;99.90;;;;;;4964561;28;20429;-84
2021/01/22 11:51:24;;;;;;;2.80;1.20;;;7.70;99.90;;;;;;4944068;28;20524;-84
2021/01/22 11:53:53;;;;;;;1.27;1.10;;;7.50;99.90;;;;;;4943277;28;20453;-85
2021/01/22 11:56:19;;;;;;;3.57;1.20;;;7.20;99.90;;;;;;4949171;28;20190;-87
2021/01/22 11:58:45;;;;;;;2.90;1.30;;;7.00;99.90;;;;;;4948062;28;20536;-86
2021/01/22 12:01:11;;;;;;;3.30;1.30;;;6.60;99.90;;;;;;4946481;28;20457;-85
2021/01/22 12:03:37;;;;;;;3.80;1.27;;;6.50;99.90;;;;;;4935509;28;20453;-86
2021/01/22 12:06:02;;;;;;;2.60;1.50;;;6.50;99.90;;;;;;4959415;28;20266;-85
2021/01/22 12:08:28;;;;;;;1.67;1.40;;;6.50;99.90;;;;;;4932818;28;20199;-85
2021/01/22 12:10:54;;;;;;;1.37;1.27;;;6.30;99.90;;;;;;4954565;28;20209;-84
2021/01/22 12:13:19;;;;;;;1.40;1.23;;;6.40;99.90;;;;;;4947527;28;20386;-87
2021/01/22 12:15:48;;;;;;;1.40;1.20;;;6.20;99.90;;;;;;4950736;28;20202;-86
2021/01/22 12:18:14;;;;;;;1.30;1.10;;;6.20;99.90;;;;;;4948437;28;20190;-88
2021/01/22 12:20:40;;;;;;;1.43;1.27;;;6.20;99.90;;;;;;4963345;28;20738;-86
2021/01/22 12:23:05;;;;;;;3.37;1.57;;;6.30;99.90;;;;;;4932928;28;20314;-86
2021/01/22 12:25:31;;;;;;;1.50;1.40;;;6.30;99.90;;;;;;4949109;28;20191;-87
2021/01/22 12:27:57;;;;;;;1.77;1.23;;;6.30;99.90;;;;;;4949487;28;20544;-85
2021/01/22 12:30:23;;;;;;;1.70;1.60;;;6.30;99.90;;;;;;4921508;28;20298;-86
2021/01/22 12:32:48;;;;;;;2.93;1.60;;;6.40;99.90;;;;;;4934960;28;20226;-87
2021/01/22 12:35:16;;;;;;;1.80;1.40;;;6.50;99.90;;;;;;4945859;28;20426;-85
2021/01/22 12:37:41;;;;;;;2.87;1.47;;;6.50;99.90;;;;;;4953048;28;20198;-84
2021/01/22 12:40:08;;;;;;;2.10;1.90;;;6.40;99.90;;;;;;4965826;28;20605;-83
2021/01/22 12:42:33;;;;;;;3.97;1.80;;;6.30;99.90;;;;;;4947515;28;20221;-87
2021/01/22 12:44:59;;;;;;;1.93;1.73;;;6.30;99.90;;;;;;4952759;28;20441;-87
2021/01/22 12:47:25;;;;;;;1.73;1.63;;;6.10;99.90;;;;;;4933884;28;20191;-85
2021/01/22 12:49:50;;;;;;;1.63;1.53;;;6.10;99.90;;;;;;4948276;28;20187;-83
2021/01/22 12:52:16;;;;;;;2.47;1.87;;;5.90;99.90;;;;;;4951815;28;20203;-84
2021/01/22 12:54:42;;;;;;;1.90;1.70;;;5.80;99.90;;;;;;4948938;28;20220;-86
2021/01/22 12:57:10;;;;;;;1.97;1.77;;;5.90;99.90;;;;;;4947209;28;20225;-84
2021/01/22 12:59:36;;;;;;;2.03;1.83;;;5.90;99.90;;;;;;4949088;28;20563;-85
2021/01/22 13:02:01;;;;;;;2.07;1.87;;;5.80;99.90;;;;;;4936851;28;20471;-84